createdAt,value
2022-10-14T00:00:42.707Z,12.70
2022-10-14T00:05:45.331Z,12.77
2022-10-14T00:10:48.320Z,12.70
2022-10-14T00:15:52.248Z,12.66
2022-10-14T00:20:56.072Z,12.65
2022-10-14T00:25:59.177Z,12.72
2022-10-14T00:31:07.455Z,12.66
2022-10-14T00:36:12.757Z,12.69
2022-10-14T00:41:17.808Z,12.69
2022-10-14T00:46:23.483Z,12.71
2022-10-14T00:51:31.784Z,12.71
2022-10-14T00:56:34.915Z,12.72
2022-10-14T01:01:40.514Z,12.73
2022-10-14T01:06:48.668Z,12.71
2022-10-14T01:12:26.852Z,12.75
2022-10-14T01:17:31.463Z,12.68
2022-10-14T01:22:37.366Z,12.76
2022-10-14T01:28:00.438Z,12.77
2022-10-14T01:33:10.123Z,12.74
2022-10-14T01:38:16.095Z,12.75
2022-10-14T01:43:19.219Z,12.73
2022-10-14T01:48:26.018Z,12.71
2022-10-14T01:53:31.600Z,12.74
2022-10-14T01:58:35.275Z,12.76
2022-10-14T02:03:42.050Z,12.76
2022-10-14T02:08:57.223Z,12.76
2022-10-14T02:14:07.718Z,12.80
2022-10-14T02:19:21.347Z,12.73
2022-10-14T02:24:28.066Z,12.75
2022-10-14T02:29:32.119Z,12.76
2022-10-14T02:34:37.642Z,12.78
2022-10-14T02:39:46.038Z,12.77
2022-10-14T02:44:55.424Z,12.75
2022-10-14T02:49:59.356Z,12.77
2022-10-14T02:55:01.939Z,12.64
2022-10-14T03:00:05.745Z,12.74
2022-10-14T03:05:11.675Z,12.76
2022-10-14T03:10:15.560Z,12.78
2022-10-14T03:15:18.418Z,12.76
2022-10-14T03:20:23.667Z,12.73
2022-10-14T03:25:31.766Z,12.73
2022-10-14T03:30:44.791Z,12.71
2022-10-14T03:35:53.706Z,12.72
2022-10-14T03:41:04.651Z,12.74
2022-10-14T03:46:07.875Z,12.77
2022-10-14T03:51:12.683Z,12.71
2022-10-14T03:56:18.057Z,12.72
2022-10-14T04:01:21.546Z,12.74
2022-10-14T04:06:49.392Z,12.75
2022-10-14T04:11:55.907Z,12.73
2022-10-14T04:17:14.613Z,12.75
2022-10-14T04:22:22.952Z,12.74
2022-10-14T04:27:30.092Z,12.74
2022-10-14T04:32:38.437Z,12.74
2022-10-14T04:37:43.722Z,12.76
2022-10-14T04:42:57.315Z,12.77
2022-10-14T04:48:05.576Z,12.68
2022-10-14T04:53:17.546Z,12.67
2022-10-14T04:58:34.694Z,12.68
2022-10-14T05:03:37.502Z,12.68
2022-10-14T05:08:41.794Z,12.63
2022-10-14T05:13:47.556Z,12.66
2022-10-14T05:18:51.232Z,12.62
2022-10-14T05:23:55.455Z,12.68
2022-10-14T05:28:59.442Z,12.67
2022-10-14T05:34:02.152Z,12.65
2022-10-14T05:39:09.522Z,12.64
2022-10-14T05:44:13.191Z,12.62
2022-10-14T05:49:15.951Z,12.66
2022-10-14T05:54:21.162Z,12.67
2022-10-14T05:59:29.547Z,12.70
2022-10-14T06:04:33.333Z,12.71
2022-10-14T06:09:40.522Z,12.74
2022-10-14T06:14:45.002Z,12.68
2022-10-14T06:19:47.592Z,12.68
2022-10-14T06:24:51.524Z,12.62
2022-10-14T06:29:54.076Z,12.67
2022-10-14T06:34:56.627Z,12.66
2022-10-14T06:40:00.759Z,12.68
2022-10-14T06:45:03.339Z,12.64
2022-10-14T06:50:06.501Z,12.68
2022-10-14T06:55:10.626Z,12.62
2022-10-14T07:00:13.883Z,12.65
2022-10-14T07:05:16.942Z,12.70
2022-10-14T07:10:20.855Z,12.78
2022-10-14T07:15:23.447Z,12.76
2022-10-14T07:20:26.012Z,12.76
2022-10-14T07:25:29.902Z,12.83
2022-10-14T07:30:32.535Z,12.89
2022-10-14T07:35:35.448Z,12.87
2022-10-14T07:40:39.538Z,12.97
2022-10-14T07:45:44.025Z,13.10
2022-10-14T07:50:50.754Z,13.19
2022-10-14T07:55:57.927Z,13.24
2022-10-14T08:01:00.506Z,13.43
2022-10-14T08:06:05.277Z,13.43
2022-10-14T08:11:11.618Z,13.48
2022-10-14T08:16:16.183Z,13.34
2022-10-14T08:21:19.369Z,13.49
2022-10-14T08:26:24.636Z,13.45
2022-10-14T08:31:27.238Z,13.53
2022-10-14T08:36:29.845Z,13.72
2022-10-14T08:42:05.834Z,14.15
2022-10-14T08:47:13.037Z,14.17
2022-10-14T08:52:19.064Z,14.08
2022-10-14T08:57:26.600Z,14.29
2022-10-14T09:02:36.791Z,14.32
2022-10-14T09:07:39.459Z,14.41
2022-10-14T09:12:43.806Z,14.44
2022-10-14T09:17:50.905Z,14.53
2022-10-14T09:22:59.474Z,14.68
2022-10-14T09:28:04.531Z,14.58
2022-10-14T09:33:07.701Z,14.67
2022-10-14T09:38:11.538Z,14.76
2022-10-14T09:43:18.516Z,14.93
2022-10-14T09:48:32.252Z,15.02
2022-10-14T09:53:38.423Z,14.97
2022-10-14T09:58:44.515Z,15.22
2022-10-14T10:03:47.937Z,15.13
2022-10-14T10:08:58.435Z,15.36
2022-10-14T10:14:17.359Z,15.39
2022-10-14T10:19:28.666Z,15.31
2022-10-14T10:24:32.243Z,15.33
2022-10-14T10:29:36.229Z,15.46
2022-10-14T10:35:04.528Z,15.46
2022-10-14T10:40:20.064Z,15.56
2022-10-14T10:45:35.591Z,15.66
2022-10-14T10:50:45.258Z,15.61
2022-10-14T10:55:56.175Z,15.79
2022-10-14T11:01:02.936Z,15.86
2022-10-14T11:06:08.181Z,15.92
2022-10-14T11:11:31.334Z,15.87
2022-10-14T11:16:38.986Z,15.98
2022-10-14T11:21:45.170Z,16.09
2022-10-14T11:26:57.601Z,16.16
2022-10-14T11:32:07.612Z,16.41
2022-10-14T11:37:17.588Z,16.79
2022-10-14T11:42:27.104Z,17.20
2022-10-14T11:47:37.008Z,16.74
2022-10-14T11:52:41.183Z,16.68
2022-10-14T11:57:46.458Z,16.67
2022-10-14T12:02:54.125Z,16.69
2022-10-14T12:08:03.868Z,16.93
2022-10-14T12:13:09.174Z,17.14
2022-10-14T12:18:13.275Z,16.93
2022-10-14T12:23:32.732Z,16.94
2022-10-14T12:28:35.821Z,16.88
2022-10-14T12:34:18.825Z,16.86
2022-10-14T12:39:35.559Z,16.82
2022-10-14T12:44:43.368Z,16.80
2022-10-14T12:49:50.994Z,16.70
2022-10-14T12:54:54.009Z,16.65
2022-10-14T12:59:58.676Z,16.61
2022-10-14T13:05:06.710Z,16.63
2022-10-14T13:10:28.576Z,16.63
2022-10-14T13:15:38.826Z,16.67
2022-10-14T13:20:53.644Z,16.70
2022-10-14T13:26:01.786Z,16.63
2022-10-14T13:31:06.507Z,16.59
2022-10-14T13:36:16.519Z,16.61
2022-10-14T13:41:30.765Z,16.66
2022-10-14T13:46:37.565Z,16.69
2022-10-14T13:51:50.781Z,16.62
2022-10-14T13:57:34.554Z,16.51
2022-10-14T14:02:27.212Z,16.46
2022-10-14T14:08:21.767Z,16.53
2022-10-14T14:12:57.432Z,16.34
2022-10-14T14:17:59.979Z,16.31
2022-10-14T14:23:04.794Z,16.30
2022-10-14T14:28:07.338Z,16.21
2022-10-14T14:33:13.031Z,16.14
2022-10-14T14:38:27.691Z,16.17
2022-10-14T14:43:35.855Z,16.01
2022-10-14T14:48:42.112Z,16.03
2022-10-14T14:53:54.403Z,15.86
2022-10-14T14:58:58.991Z,15.74
2022-10-14T15:04:11.893Z,15.51
2022-10-14T15:09:23.874Z,15.47
2022-10-14T15:14:33.978Z,15.33
2022-10-14T15:19:38.786Z,15.28
2022-10-14T15:25:01.301Z,15.30
2022-10-14T15:30:23.893Z,15.22
2022-10-14T15:35:26.835Z,15.20
2022-10-14T15:40:32.086Z,15.20
2022-10-14T15:45:34.643Z,15.12
2022-10-14T15:50:39.401Z,15.07
2022-10-14T15:55:44.069Z,15.04
2022-10-14T16:00:47.413Z,14.97
2022-10-14T16:05:50.064Z,14.95
2022-10-14T16:10:54.982Z,14.98
2022-10-14T16:16:00.089Z,14.88
2022-10-14T16:21:02.624Z,14.85
2022-10-14T16:26:07.443Z,14.89
2022-10-14T16:31:10.330Z,14.94
2022-10-14T16:36:15.169Z,14.88
2022-10-14T16:41:19.040Z,14.89
2022-10-14T16:46:41.587Z,14.89
2022-10-14T16:51:44.898Z,14.88
2022-10-14T16:56:54.526Z,14.85
2022-10-14T17:01:57.296Z,14.83
2022-10-14T17:07:06.861Z,14.79
2022-10-14T17:12:13.812Z,14.80
2022-10-14T17:17:16.797Z,14.81
2022-10-14T17:22:20.825Z,14.75
2022-10-14T17:27:25.046Z,14.70
2022-10-14T17:32:28.577Z,14.74
2022-10-14T17:37:31.379Z,14.72
2022-10-14T17:42:35.256Z,14.63
2022-10-14T17:47:37.793Z,14.62
2022-10-14T17:52:40.333Z,14.57
2022-10-14T17:57:44.260Z,14.65
2022-10-14T18:02:46.832Z,14.71
2022-10-14T18:07:49.418Z,14.64
2022-10-14T18:12:54.283Z,14.64
2022-10-14T18:17:57.305Z,14.61
2022-10-14T18:23:03.073Z,14.61
2022-10-14T18:28:07.002Z,14.53
2022-10-14T18:33:09.554Z,14.57
2022-10-14T18:38:12.090Z,14.50
2022-10-14T18:43:15.996Z,14.56
2022-10-14T18:48:21.878Z,14.50
2022-10-14T18:53:24.574Z,14.52
2022-10-14T18:58:28.483Z,14.41
2022-10-14T19:03:32.526Z,14.41
2022-10-14T19:08:36.949Z,14.39
2022-10-14T19:13:41.659Z,14.31
2022-10-14T19:18:44.267Z,14.25
2022-10-14T19:23:47.061Z,14.34
2022-10-14T19:28:52.037Z,14.32
2022-10-14T19:33:55.683Z,14.25
2022-10-14T19:38:59.449Z,14.19
2022-10-14T19:44:03.484Z,14.20
2022-10-14T19:49:06.453Z,14.19
2022-10-14T19:54:10.427Z,14.10
2022-10-14T19:59:14.785Z,14.25
2022-10-14T20:04:20.788Z,14.18
2022-10-14T20:09:25.352Z,14.16
2022-10-14T20:14:30.297Z,14.11
2022-10-14T20:19:32.870Z,14.11
2022-10-14T20:24:39.772Z,14.12
2022-10-14T20:29:43.714Z,14.10
2022-10-14T20:34:46.334Z,14.07
2022-10-14T20:39:49.411Z,14.04
2022-10-14T20:44:53.297Z,13.97
2022-10-14T20:49:55.927Z,13.97
2022-10-14T20:54:58.522Z,13.84
2022-10-14T21:00:02.544Z,13.81
2022-10-14T21:05:05.542Z,13.78
2022-10-14T21:10:09.216Z,13.79
2022-10-14T21:15:13.591Z,13.77
2022-10-14T21:20:16.349Z,13.66
2022-10-14T21:25:18.942Z,13.66
2022-10-14T21:30:22.879Z,13.65
2022-10-14T21:35:25.703Z,13.64
2022-10-14T21:40:28.314Z,13.41
2022-10-14T21:45:32.381Z,13.51
2022-10-14T21:50:35.002Z,13.66
2022-10-14T21:55:37.593Z,13.60
2022-10-14T22:00:41.518Z,13.54
2022-10-14T22:05:44.236Z,13.62
2022-10-14T22:10:47.619Z,13.52
2022-10-14T22:15:51.573Z,13.53
2022-10-14T22:21:04.823Z,13.55
2022-10-14T22:26:08.575Z,13.43
2022-10-14T22:31:14.142Z,13.42
2022-10-14T22:36:21.109Z,13.46
2022-10-14T22:41:30.981Z,13.50
2022-10-14T22:46:39.068Z,13.51
2022-10-14T22:51:42.062Z,13.48
2022-10-14T22:56:44.703Z,13.46
2022-10-14T23:01:48.790Z,13.59
2022-10-14T23:06:51.696Z,13.57
2022-10-14T23:11:54.304Z,13.56
2022-10-14T23:16:58.221Z,13.50
2022-10-14T23:22:00.806Z,13.51
2022-10-14T23:27:03.378Z,13.47
2022-10-14T23:32:07.431Z,13.44
2022-10-14T23:37:10.088Z,13.40
2022-10-14T23:42:12.667Z,13.36
2022-10-14T23:47:16.815Z,13.33
2022-10-14T23:52:19.381Z,13.42
2022-10-14T23:57:22.148Z,13.44
